Time;durP1;ratioP1;P1;durP2;ratioP2;P2;SDS_P1;SDS_P2;PMS_P1;PMS_P2;Temp;Humidity;BMP_temperature;BMP_pressure;BME280_temperature;BME280_humidity;BME280_pressure;Samples;Min_cycle;Max_cycle;Signal;HPM_P1;HPM_P2
2023/10/09 00:05:45;;;;;;;400.77;374.38;;;;;;;;;;10419652;28;20338;-66
2023/10/09 00:10:52;;;;;;;284.27;266.08;;;;;;;;;;10421717;28;20087;-65
2023/10/09 00:15:57;;;;;;;260.95;244.75;;;;;;;;;;10421256;28;20234;-64
2023/10/09 00:21:00;;;;;;;277.30;258.65;;;;;;;;;;10421237;28;20033;-64
2023/10/09 00:26:16;;;;;;;211.50;198.65;;;;;;;;;;10420812;28;20068;-64
2023/10/09 00:31:33;;;;;;;15.00;13.55;;;;;;;;;;10420123;28;20093;-64
2023/10/09 00:36:49;;;;;;;24.00;21.88;;;;;;;;;;10420074;28;20207;-64
2023/10/09 00:41:50;;;;;;;15.18;4.05;;;;;;;;;;10424407;28;20339;-64
2023/10/09 00:46:51;;;;;;;10.45;3.95;;;;;;;;;;10420348;28;20380;-64
2023/10/09 00:51:56;;;;;;;53.35;49.88;;;;;;;;;;10419909;28;20315;-66
2023/10/09 00:57:06;;;;;;;142.10;133.75;;;;;;;;;;10419905;28;20032;-65
2023/10/09 01:02:06;;;;;;;40.63;37.58;;;;;;;;;;10425301;28;20093;-65
2023/10/09 01:07:15;;;;;;;66.07;61.38;;;;;;;;;;10419386;28;20339;-65
2023/10/09 01:12:18;;;;;;;12.38;3.15;;;;;;;;;;10419112;28;20013;-64
2023/10/09 01:17:30;;;;;;;30.85;27.95;;;;;;;;;;10418798;28;20249;-64
2023/10/09 01:22:30;;;;;;;312.20;292.92;;;;;;;;;;10418702;28;20192;-65
2023/10/09 01:27:32;;;;;;;323.17;303.73;;;;;;;;;;10418440;28;20020;-65
2023/10/09 01:32:34;;;;;;;534.97;500.05;;;;;;;;;;10418242;28;20109;-65
2023/10/09 01:37:37;;;;;;;268.45;251.43;;;;;;;;;;10423941;28;20409;-65
2023/10/09 01:42:45;;;;;;;295.63;278.00;;;;;;;;;;10417284;28;20028;-65
2023/10/09 01:47:51;;;;;;;100.13;94.57;;;;;;;;;;10418282;28;20030;-64
2023/10/09 01:52:51;;;;;;;83.72;79.03;;;;;;;;;;10417341;28;20275;-64
2023/10/09 01:57:52;;;;;;;342.25;321.42;;;;;;;;;;10417135;28;20024;-64
2023/10/09 02:02:52;;;;;;;111.82;104.85;;;;;;;;;;10416623;28;20238;-64
2023/10/09 02:07:52;;;;;;;142.65;134.57;;;;;;;;;;10416731;28;20223;-65
2023/10/09 02:12:59;;;;;;;9.60;5.73;;;;;;;;;;10417085;28;20013;-65
2023/10/09 02:18:01;;;;;;;11.18;5.03;;;;;;;;;;10416696;28;20013;-65
2023/10/09 02:23:01;;;;;;;13.93;2.35;;;;;;;;;;10416801;28;20077;-64
2023/10/09 02:28:05;;;;;;;8.73;3.07;;;;;;;;;;10415283;28;20024;-63
2023/10/09 02:33:09;;;;;;;9.73;7.03;;;;;;;;;;10416786;28;20013;-65
2023/10/09 02:38:14;;;;;;;42.88;39.72;;;;;;;;;;10416108;28;20065;-65
2023/10/09 02:43:17;;;;;;;11.05;3.58;;;;;;;;;;10415862;28;20334;-65
2023/10/09 02:48:25;;;;;;;8.88;4.07;;;;;;;;;;10421395;28;20028;-64
2023/10/09 02:53:28;;;;;;;18.60;17.13;;;;;;;;;;10415900;28;20039;-64
2023/10/09 02:58:31;;;;;;;54.45;51.30;;;;;;;;;;10424102;28;20021;-64
2023/10/09 03:03:35;;;;;;;66.38;62.72;;;;;;;;;;10425107;28;20009;-64
2023/10/09 03:08:36;;;;;;;63.50;59.60;;;;;;;;;;10423793;28;20025;-63
2023/10/09 03:13:37;;;;;;;76.00;71.90;;;;;;;;;;10424170;28;20293;-64
2023/10/09 03:18:37;;;;;;;46.90;44.15;;;;;;;;;;10423662;28;20079;-63
2023/10/09 03:23:38;;;;;;;154.80;145.82;;;;;;;;;;10423409;28;20257;-64
2023/10/09 03:28:38;;;;;;;53.75;50.65;;;;;;;;;;10423006;28;20334;-64
2023/10/09 03:33:39;;;;;;;181.00;170.65;;;;;;;;;;10423018;28;20024;-64
2023/10/09 03:38:39;;;;;;;240.30;226.63;;;;;;;;;;10421861;28;20048;-64
2023/10/09 03:43:42;;;;;;;196.65;185.55;;;;;;;;;;10419080;28;20037;-65
2023/10/09 03:48:45;;;;;;;146.55;138.18;;;;;;;;;;10417706;28;20032;-65
2023/10/09 03:53:47;;;;;;;363.98;342.60;;;;;;;;;;10419099;28;20029;-65
2023/10/09 03:58:58;;;;;;;518.15;484.00;;;;;;;;;;10421010;28;20028;-65
2023/10/09 04:04:01;;;;;;;576.83;539.45;;;;;;;;;;10418713;28;20025;-64
2023/10/09 04:14:26;;;;;;;608.97;568.40;;;;;;;;;;10417969;28;20017;-65
2023/10/09 04:19:26;;;;;;;549.28;513.97;;;;;;;;;;10419578;28;20071;-64
2023/10/09 04:24:27;;;;;;;733.83;684.40;;;;;;;;;;10420932;28;20232;-64
2023/10/09 04:29:27;;;;;;;734.40;684.00;;;;;;;;;;10420655;28;20025;-63
2023/10/09 04:44:36;;;;;;;671.55;627.28;;;;;;;;;;10420815;28;20076;-66
2023/10/09 04:55:38;;;;;;;790.75;735.58;;;;;;;;;;10419256;28;20053;-64
2023/10/09 05:00:46;;;;;;;770.03;717.08;;;;;;;;;;10418494;28;20046;-65
2023/10/09 05:11:00;;;;;;;705.75;657.40;;;;;;;;;;10416391;28;20023;-65
2023/10/09 05:16:02;;;;;;;797.70;742.85;;;;;;;;;;10415835;28;20281;-65
2023/10/09 05:26:26;;;;;;;705.58;658.17;;;;;;;;;;10417324;28;20219;-65
2023/10/09 05:31:55;;;;;;;867.83;804.30;;;;;;;;;;10417952;28;20242;-65
2023/10/09 05:37:10;;;;;;;875.53;814.45;;;;;;;;;;10416709;28;20315;-64
2023/10/09 05:42:17;;;;;;;909.53;840.75;;;;;;;;;;10417191;28;20021;-65
2023/10/09 05:47:31;;;;;;;927.35;857.70;;;;;;;;;;10417403;28;20041;-64
2023/10/09 06:08:24;;;;;;;952.65;875.33;;;;;;;;;;10383360;28;20304;-65
2023/10/09 06:14:12;;;;;;;971.00;889.42;;;;;;;;;;10414699;28;20021;-66
2023/10/09 06:19:07;;;;;;;965.53;883.10;;;;;;;;;;10404884;28;20382;-66
2023/10/09 06:24:17;;;;;;;975.83;891.95;;;;;;;;;;10416765;28;20021;-66
2023/10/09 06:29:35;;;;;;;981.63;894.75;;;;;;;;;;10415385;28;20315;-65
2023/10/09 06:34:35;;;;;;;985.42;895.28;;;;;;;;;;10415246;28;20028;-66
2023/10/09 06:39:50;;;;;;;983.35;893.42;;;;;;;;;;10380017;28;20042;-65
2023/10/09 06:44:52;;;;;;;1003.63;912.70;;;;;;;;;;10408085;28;20228;-65
2023/10/09 06:50:55;;;;;;;1010.80;930.55;;;;;;;;;;10416409;28;20041;-65
2023/10/09 06:55:19;;;;;;;1016.45;935.97;;;;;;;;;;10414992;28;20045;-65
2023/10/09 07:01:23;;;;;;;941.15;864.50;;;;;;;;;;10415376;28;20100;-65
2023/10/09 07:06:23;;;;;;;880.90;816.22;;;;;;;;;;10415245;28;20339;-65
2023/10/09 07:11:21;;;;;;;921.33;853.50;;;;;;;;;;10415413;28;20319;-65
2023/10/09 07:16:28;;;;;;;974.00;900.95;;;;;;;;;;10415552;28;20303;-65
2023/10/09 07:21:28;;;;;;;1007.22;924.95;;;;;;;;;;10415089;28;20017;-65
2023/10/09 07:26:47;;;;;;;995.30;914.40;;;;;;;;;;10415302;28;20021;-65
2023/10/09 07:31:56;;;;;;;1000.35;916.72;;;;;;;;;;10415172;28;20029;-65
2023/10/09 07:36:57;;;;;;;999.97;917.53;;;;;;;;;;10416039;28;20071;-64
2023/10/09 07:42:15;;;;;;;1033.40;943.37;;;;;;;;;;10416929;28;20036;-65
2023/10/09 07:47:19;;;;;;;1012.57;928.60;;;;;;;;;;10422187;28;20267;-65
2023/10/09 07:52:21;;;;;;;1021.30;932.90;;;;;;;;;;10422362;28;20041;-64
2023/10/09 07:57:28;;;;;;;1013.90;931.50;;;;;;;;;;10425615;28;20200;-64
2023/10/09 08:02:31;;;;;;;1034.30;937.80;;;;;;;;;;10421963;28;20085;-66
2023/10/09 08:07:35;;;;;;;1040.75;946.08;;;;;;;;;;10421665;28;20017;-66
2023/10/09 08:12:57;;;;;;;995.28;901.92;;;;;;;;;;10421267;28;20188;-66
2023/10/09 08:18:09;;;;;;;1044.10;943.80;;;;;;;;;;10421878;28;20025;-64
2023/10/09 08:23:22;;;;;;;1072.78;969.63;;;;;;;;;;10421299;28;20342;-64
2023/10/09 08:38:26;;;;;;;1123.95;999.90;;;;;;;;;;10420213;28;20113;-64
2023/10/09 08:43:30;;;;;;;1120.35;999.90;;;;;;;;;;10419282;28;20044;-64
2023/10/09 08:48:30;;;;;;;1143.40;999.90;;;;;;;;;;10421560;28;20264;-64
2023/10/09 08:53:33;;;;;;;1144.28;999.90;;;;;;;;;;10419600;28;20021;-65
2023/10/09 08:58:37;;;;;;;622.05;574.80;;;;;;;;;;10419558;28;20248;-66
2023/10/09 09:03:40;;;;;;;660.17;609.42;;;;;;;;;;10420196;28;20160;-65
2023/10/09 09:08:44;;;;;;;821.35;756.35;;;;;;;;;;10419479;28;20100;-65
2023/10/09 09:13:48;;;;;;;1105.65;999.90;;;;;;;;;;10419655;28;20628;-66
2023/10/09 09:18:51;;;;;;;1104.00;997.95;;;;;;;;;;10419452;28;20349;-65
2023/10/09 09:23:57;;;;;;;1129.53;999.90;;;;;;;;;;10418585;28;20017;-66
2023/10/09 09:28:57;;;;;;;1092.72;999.90;;;;;;;;;;10386576;28;20018;-64
2023/10/09 09:34:04;;;;;;;1170.45;999.90;;;;;;;;;;10418220;28;20056;-65
2023/10/09 09:39:19;;;;;;;1156.70;999.90;;;;;;;;;;10417899;28;20033;-65
2023/10/09 09:44:21;;;;;;;1161.47;999.90;;;;;;;;;;10418389;28;20025;-65
2023/10/09 09:49:23;;;;;;;1155.38;999.90;;;;;;;;;;10417842;28;20208;-65
2023/10/09 09:54:24;;;;;;;314.17;289.85;;;;;;;;;;10417403;28;20021;-65
2023/10/09 09:59:27;;;;;;;169.07;158.48;;;;;;;;;;10417193;28;20203;-65
2023/10/09 10:04:33;;;;;;;65.07;61.45;;;;;;;;;;10416400;28;20017;-64
2023/10/09 10:09:38;;;;;;;64.97;61.35;;;;;;;;;;10416719;28;20091;-66
2023/10/09 10:14:52;;;;;;;78.55;73.95;;;;;;;;;;10416771;28;20032;-65
2023/10/09 10:20:00;;;;;;;147.30;137.90;;;;;;;;;;10416436;28;20037;-65
2023/10/09 10:25:09;;;;;;;182.60;170.10;;;;;;;;;;10403214;28;20203;-66
2023/10/09 10:30:23;;;;;;;215.05;199.35;;;;;;;;;;10415400;28;20009;-65
2023/10/09 10:35:39;;;;;;;238.55;221.07;;;;;;;;;;10416001;28;20181;-66
2023/10/09 10:45:45;;;;;;;279.92;258.15;;;;;;;;;;10415708;28;20021;-65
2023/10/09 10:50:45;;;;;;;216.18;200.15;;;;;;;;;;10415739;28;20040;-65
2023/10/09 10:56:17;;;;;;;210.38;195.30;;;;;;;;;;10415802;28;20307;-65
2023/10/09 11:01:18;;;;;;;235.88;218.50;;;;;;;;;;10415302;28;20024;-65
2023/10/09 11:06:25;;;;;;;156.07;145.70;;;;;;;;;;10421422;28;20116;-65
2023/10/09 11:11:32;;;;;;;176.02;163.57;;;;;;;;;;10415906;28;20025;-65
2023/10/09 11:16:42;;;;;;;136.32;127.47;;;;;;;;;;10419399;28;20042;-65
2023/10/09 11:21:43;;;;;;;182.50;169.90;;;;;;;;;;10422213;28;20044;-65
2023/10/09 11:26:53;;;;;;;104.05;97.85;;;;;;;;;;10423445;28;20024;-67
2023/10/09 11:32:00;;;;;;;179.77;167.98;;;;;;;;;;10426959;28;20139;-66
2023/10/09 11:37:12;;;;;;;223.60;207.80;;;;;;;;;;10422565;28;20045;-66
2023/10/09 11:42:14;;;;;;;191.65;179.10;;;;;;;;;;10423234;28;20063;-66
2023/10/09 11:52:35;;;;;;;165.80;155.15;;;;;;;;;;10422212;28;20025;-65
2023/10/09 11:57:36;;;;;;;304.55;282.10;;;;;;;;;;10420773;28;20155;-65
2023/10/09 12:02:43;;;;;;;293.00;272.53;;;;;;;;;;10422101;28;20029;-65
2023/10/09 12:07:43;;;;;;;;;;;;;;;;;;10422400;28;20484;-65
2023/10/09 12:12:46;;;;;;;316.70;294.00;;;;;;;;;;10421493;28;19901;-65
2023/10/09 12:17:47;;;;;;;359.60;333.10;;;;;;;;;;10421175;28;20052;-65
2023/10/09 12:22:47;;;;;;;414.20;383.63;;;;;;;;;;10421101;28;20028;-65
2023/10/09 12:27:47;;;;;;;494.25;458.02;;;;;;;;;;10420660;28;20093;-65
2023/10/09 12:32:47;;;;;;;1157.15;999.90;;;;;;;;;;10420931;28;20334;-65
2023/10/09 12:37:48;;;;;;;1146.22;999.90;;;;;;;;;;10420367;28;20048;-65
2023/10/09 12:42:49;;;;;;;881.28;805.08;;;;;;;;;;10419123;28;20025;-65
2023/10/09 12:47:50;;;;;;;1192.13;999.90;;;;;;;;;;10420396;28;20330;-65
2023/10/09 12:52:50;;;;;;;1134.87;999.90;;;;;;;;;;10420131;28;20036;-65
2023/10/09 12:57:51;;;;;;;159.40;149.87;;;;;;;;;;10401877;28;20072;-65
2023/10/09 13:02:51;;;;;;;1169.22;999.90;;;;;;;;;;10398050;28;20088;-65
2023/10/09 13:07:53;;;;;;;1167.70;999.90;;;;;;;;;;10419591;28;20037;-65
2023/10/09 13:12:55;;;;;;;1148.65;999.90;;;;;;;;;;10419084;28;20026;-66
2023/10/09 13:17:55;;;;;;;217.18;203.38;;;;;;;;;;10419614;28;20091;-66
2023/10/09 13:22:57;;;;;;;1149.70;999.90;;;;;;;;;;10417834;28;20553;-65
2023/10/09 13:27:57;;;;;;;1148.07;999.90;;;;;;;;;;10424661;28;20260;-65
2023/10/09 13:33:00;;;;;;;1174.00;999.90;;;;;;;;;;10418429;28;20025;-64
2023/10/09 13:38:00;;;;;;;1141.13;999.90;;;;;;;;;;10417415;28;20065;-66
2023/10/09 13:43:00;;;;;;;1140.18;999.90;;;;;;;;;;10417474;28;20029;-65
2023/10/09 13:48:03;;;;;;;1139.90;999.90;;;;;;;;;;10417756;28;20021;-64
2023/10/09 13:53:10;;;;;;;1131.10;999.90;;;;;;;;;;10416566;28;20061;-65
2023/10/09 13:58:13;;;;;;;780.10;718.00;;;;;;;;;;10416870;28;20330;-66
2023/10/09 14:03:19;;;;;;;1141.80;999.90;;;;;;;;;;10399255;28;20026;-66
2023/10/09 14:08:23;;;;;;;1152.63;999.90;;;;;;;;;;10413191;28;20087;-65
2023/10/09 14:13:28;;;;;;;993.42;907.38;;;;;;;;;;10415125;28;20036;-69
2023/10/09 14:18:29;;;;;;;1128.85;999.90;;;;;;;;;;10396628;28;20018;-67
2023/10/09 14:23:34;;;;;;;923.45;846.53;;;;;;;;;;10416284;28;20422;-65
2023/10/09 14:28:34;;;;;;;764.92;703.78;;;;;;;;;;10416309;28;20021;-64
2023/10/09 14:33:36;;;;;;;663.37;611.90;;;;;;;;;;10415738;28;20238;-64
2023/10/09 14:38:38;;;;;;;264.65;246.65;;;;;;;;;;10413499;28;20037;-65
2023/10/09 14:43:38;;;;;;;176.40;164.38;;;;;;;;;;10415544;28;20040;-65
2023/10/09 14:48:39;;;;;;;33.70;31.35;;;;;;;;;;10416062;28;20096;-66
2023/10/09 14:53:40;;;;;;;15.88;14.35;;;;;;;;;;10415249;28;20071;-65
2023/10/09 14:58:40;;;;;;;15.70;14.25;;;;;;;;;;10415532;28;20029;-66
2023/10/09 15:03:42;;;;;;;11.48;9.05;;;;;;;;;;10415569;28;20021;-66
2023/10/09 15:08:42;;;;;;;26.02;24.10;;;;;;;;;;10392522;28;20092;-65
2023/10/09 15:13:42;;;;;;;86.28;80.03;;;;;;;;;;10415140;28;20242;-65
2023/10/09 15:18:42;;;;;;;189.40;177.95;;;;;;;;;;10415081;28;20029;-64
2023/10/09 15:23:44;;;;;;;229.23;214.80;;;;;;;;;;10415058;28;20018;-64
2023/10/09 15:28:44;;;;;;;152.63;143.43;;;;;;;;;;10415426;28;20267;-65
2023/10/09 15:33:47;;;;;;;186.37;175.03;;;;;;;;;;10415223;28;20223;-65
2023/10/09 15:38:49;;;;;;;279.65;261.27;;;;;;;;;;10414070;28;20147;-65
2023/10/09 15:43:51;;;;;;;222.10;207.95;;;;;;;;;;10415082;28;20033;-65
2023/10/09 15:48:53;;;;;;;255.52;239.20;;;;;;;;;;10414885;28;20215;-65
2023/10/09 15:53:53;;;;;;;278.98;260.75;;;;;;;;;;10414244;28;20017;-66
2023/10/09 15:58:54;;;;;;;401.80;373.57;;;;;;;;;;10414574;28;20227;-65
2023/10/09 16:03:55;;;;;;;566.40;526.00;;;;;;;;;;10381397;28;20018;-65
2023/10/09 16:08:55;;;;;;;466.45;434.13;;;;;;;;;;10417632;28;20033;-67
2023/10/09 16:13:55;;;;;;;492.13;457.88;;;;;;;;;;10422072;28;20029;-68
2023/10/09 16:18:57;;;;;;;653.78;604.70;;;;;;;;;;10419101;28;20037;-69
2023/10/09 16:23:59;;;;;;;733.17;677.00;;;;;;;;;;10419416;28;20036;-68
2023/10/09 16:28:59;;;;;;;747.38;689.70;;;;;;;;;;10410394;28;20088;-75
2023/10/09 16:34:00;;;;;;;831.28;767.45;;;;;;;;;;10414399;28;20304;-71
2023/10/09 16:39:00;;;;;;;1031.93;953.90;;;;;;;;;;10415697;28;20045;-72
2023/10/09 16:44:01;;;;;;;1070.40;988.30;;;;;;;;;;10415345;28;20028;-73
2023/10/09 16:49:04;;;;;;;1105.22;999.90;;;;;;;;;;10415065;28;20024;-70
2023/10/09 16:54:04;;;;;;;1089.38;997.20;;;;;;;;;;10413928;28;20021;-69
2023/10/09 16:59:04;;;;;;;1085.03;981.72;;;;;;;;;;10412995;28;20024;-67
2023/10/09 17:04:05;;;;;;;1054.03;951.85;;;;;;;;;;10413852;28;20051;-68
2023/10/09 17:09:09;;;;;;;1083.55;979.95;;;;;;;;;;10413812;28;20056;-68
2023/10/09 17:14:14;;;;;;;1076.97;974.10;;;;;;;;;;10410701;28;20021;-69
2023/10/09 17:19:15;;;;;;;1069.97;967.30;;;;;;;;;;10411522;28;20025;-69
2023/10/09 17:24:15;;;;;;;1054.28;952.03;;;;;;;;;;10414513;28;20311;-69
2023/10/09 17:29:17;;;;;;;1052.93;951.08;;;;;;;;;;10413251;28;20025;-68
2023/10/09 17:34:17;;;;;;;1045.80;946.17;;;;;;;;;;10413437;28;20308;-68
2023/10/09 17:39:25;;;;;;;1041.72;941.10;;;;;;;;;;10413813;28;20134;-68
2023/10/09 17:44:27;;;;;;;1058.20;956.17;;;;;;;;;;10411612;28;20267;-68
2023/10/09 17:49:27;;;;;;;1056.55;955.35;;;;;;;;;;10413397;28;20319;-69
2023/10/09 17:54:27;;;;;;;1024.03;924.90;;;;;;;;;;10409538;28;20837;-71
2023/10/09 17:59:28;;;;;;;1017.25;918.75;;;;;;;;;;10412188;28;20359;-68
2023/10/09 18:04:35;;;;;;;1028.27;926.70;;;;;;;;;;10412200;28;20100;-67
2023/10/09 18:09:35;;;;;;;1041.45;943.58;;;;;;;;;;10423381;28;20236;-67
2023/10/09 18:14:35;;;;;;;1039.93;938.03;;;;;;;;;;10412100;28;20042;-66
2023/10/09 18:19:38;;;;;;;1066.80;963.55;;;;;;;;;;10411958;28;20215;-69
2023/10/09 18:24:40;;;;;;;1070.60;970.25;;;;;;;;;;10409008;28;20270;-69
2023/10/09 18:29:48;;;;;;;1057.85;961.95;;;;;;;;;;10406810;28;20299;-69
2023/10/09 18:34:48;;;;;;;1035.82;944.53;;;;;;;;;;10409490;28;20052;-69
2023/10/09 18:39:49;;;;;;;1041.53;944.53;;;;;;;;;;10443277;28;20263;-69
2023/10/09 18:44:49;;;;;;;1051.50;950.28;;;;;;;;;;10410893;28;20041;-69
2023/10/09 18:49:50;;;;;;;1021.87;922.60;;;;;;;;;;10409762;28;20370;-69
2023/10/09 18:54:50;;;;;;;1059.03;956.70;;;;;;;;;;10411772;28;20423;-69
2023/10/09 18:59:51;;;;;;;1036.47;937.67;;;;;;;;;;10412004;28;20349;-66
2023/10/09 19:04:52;;;;;;;1019.88;922.60;;;;;;;;;;10408113;28;20193;-66
2023/10/09 19:09:55;;;;;;;991.13;893.90;;;;;;;;;;10411263;28;20052;-65
2023/10/09 19:14:55;;;;;;;1022.85;923.25;;;;;;;;;;10411719;28;20238;-66
2023/10/09 19:19:57;;;;;;;992.63;894.93;;;;;;;;;;10411063;28;20330;-66
2023/10/09 19:24:58;;;;;;;1006.05;907.60;;;;;;;;;;10409725;28;20252;-66
2023/10/09 19:30:00;;;;;;;1003.03;904.80;;;;;;;;;;10411055;28;20018;-66
2023/10/09 19:35:02;;;;;;;1038.53;939.17;;;;;;;;;;10420669;28;20044;-66
2023/10/09 19:40:09;;;;;;;987.63;890.85;;;;;;;;;;10414939;28;20076;-65
2023/10/09 19:45:10;;;;;;;1007.03;909.23;;;;;;;;;;10419038;28;20096;-65
2023/10/09 19:50:14;;;;;;;994.58;897.67;;;;;;;;;;10418987;28;20443;-65
2023/10/09 19:55:14;;;;;;;979.08;882.95;;;;;;;;;;10415876;28;20280;-65
2023/10/09 20:00:21;;;;;;;999.35;901.95;;;;;;;;;;10416821;28;20086;-65
2023/10/09 20:05:22;;;;;;;1013.83;915.97;;;;;;;;;;10418012;28;20311;-65
2023/10/09 20:10:22;;;;;;;1005.72;908.08;;;;;;;;;;10416098;28;20230;-64
2023/10/09 20:15:23;;;;;;;985.80;889.00;;;;;;;;;;10417777;28;20017;-66
2023/10/09 20:20:24;;;;;;;1011.78;914.30;;;;;;;;;;10428779;28;20284;-64
2023/10/09 20:25:27;;;;;;;960.50;865.42;;;;;;;;;;10417260;28;20339;-65
2023/10/09 20:30:28;;;;;;;1007.80;911.28;;;;;;;;;;10416544;28;20013;-71
2023/10/09 20:35:28;;;;;;;969.72;874.90;;;;;;;;;;10417073;28;20319;-70
2023/10/09 20:40:29;;;;;;;997.17;900.40;;;;;;;;;;10415151;28;20124;-70
2023/10/09 20:45:29;;;;;;;983.77;888.60;;;;;;;;;;10414348;28;20033;-73
2023/10/09 20:50:29;;;;;;;1012.33;912.80;;;;;;;;;;10415543;28;20256;-69
2023/10/09 20:55:29;;;;;;;1015.50;918.20;;;;;;;;;;10415555;28;20228;-69
2023/10/09 21:00:32;;;;;;;1013.00;915.58;;;;;;;;;;10415807;28;20284;-64
2023/10/09 21:05:33;;;;;;;1006.03;908.78;;;;;;;;;;10416654;28;20054;-65
2023/10/09 21:10:36;;;;;;;994.00;897.42;;;;;;;;;;10384968;28;20036;-64
2023/10/09 21:15:37;;;;;;;974.38;878.97;;;;;;;;;;10402737;28;20349;-65
2023/10/09 21:20:38;;;;;;;943.25;848.75;;;;;;;;;;10416143;28;20017;-69
2023/10/09 21:25:38;;;;;;;969.55;874.40;;;;;;;;;;10415158;28;20349;-69
2023/10/09 21:30:38;;;;;;;942.63;848.77;;;;;;;;;;10415212;28;20018;-68
2023/10/09 21:35:40;;;;;;;969.13;874.20;;;;;;;;;;10416493;28;20513;-69
2023/10/09 21:40:41;;;;;;;975.67;880.92;;;;;;;;;;10417685;28;20034;-71
2023/10/09 21:45:44;;;;;;;952.47;858.73;;;;;;;;;;10417991;28;20081;-72
2023/10/09 21:50:45;;;;;;;985.67;889.85;;;;;;;;;;10417781;28;20339;-70
2023/10/09 21:55:45;;;;;;;972.23;877.20;;;;;;;;;;10417334;28;20196;-71
2023/10/09 22:00:47;;;;;;;953.38;860.63;;;;;;;;;;10416826;28;20036;-70
2023/10/09 22:05:47;;;;;;;974.67;880.55;;;;;;;;;;10417224;28;20009;-68
2023/10/09 22:10:48;;;;;;;990.88;896.55;;;;;;;;;;10416522;28;20084;-68
2023/10/09 22:15:48;;;;;;;957.70;864.25;;;;;;;;;;10416717;28;20028;-69
2023/10/09 22:20:49;;;;;;;962.78;869.92;;;;;;;;;;10416667;28;20033;-71
2023/10/09 22:26:00;;;;;;;933.55;841.83;;;;;;;;;;10416763;28;20009;-71
2023/10/09 22:31:10;;;;;;;947.20;854.78;;;;;;;;;;10413121;28;20122;-66
2023/10/09 22:36:23;;;;;;;950.75;857.58;;;;;;;;;;10413296;28;20075;-66
2023/10/09 22:41:24;;;;;;;930.72;839.33;;;;;;;;;;10411311;28;20331;-65
2023/10/09 22:46:25;;;;;;;927.15;835.70;;;;;;;;;;10413546;28;20059;-65
2023/10/09 22:51:29;;;;;;;910.65;819.55;;;;;;;;;;10412155;28;20071;-64
2023/10/09 22:56:31;;;;;;;899.90;809.72;;;;;;;;;;10412064;28;20580;-66
2023/10/09 23:01:32;;;;;;;919.47;829.08;;;;;;;;;;10405037;28;20032;-64
2023/10/09 23:06:33;;;;;;;914.50;823.70;;;;;;;;;;10415946;28;20080;-64
2023/10/09 23:11:33;;;;;;;917.58;826.97;;;;;;;;;;10416689;28;20032;-64
2023/10/09 23:16:47;;;;;;;878.92;789.38;;;;;;;;;;10422569;28;20364;-64
2023/10/09 23:27:25;;;;;;;736.63;588.58;;;;;;;;;;10420327;28;20084;-65
2023/10/09 23:32:32;;;;;;;708.92;481.30;;;;;;;;;;10425025;28;20016;-66
2023/10/09 23:37:37;;;;;;;843.28;755.47;;;;;;;;;;10422885;28;20091;-65
2023/10/09 23:42:37;;;;;;;871.38;782.03;;;;;;;;;;10423574;28;20089;-65
2023/10/09 23:47:40;;;;;;;872.47;783.72;;;;;;;;;;10423049;28;20022;-65
2023/10/09 23:52:44;;;;;;;844.97;757.28;;;;;;;;;;10421611;28;20029;-66
2023/10/09 23:57:44;;;;;;;826.25;739.42;;;;;;;;;;10422873;28;20357;-66
